Airfield :
LOGIN :

Register | Disclaimer

   EN    FR    IT 

 










Legend :    VFR   Marginal VFR   IFR   Intensive IFR   Very Intensive IFR
Visi :
Ceiling :
>= 8 km
>= 3000ft
5 to 8 km
1000 to 3000 ft
1500m to 5 km
500 to 1000 ft
800 to 1500m
200 to 500 ft
< 800m
< 200 ft
Symbols :   Thunderstorms  Fog  Heavy snow  Heavy precipitations  Wind > 20 kt
SIGMETs :     Misc.  Thunderstorms  Icing  Turbulence  Mountain Waves  Volcanic Ashes






- Airport Elevation : 33 ft
- IATA code : PLQ


EYPA - Palanga

CURRENT METAR :
  • 070052Z AUTO 20010KT 3000 -RA BKN002/// 06/05 Q0999

EXPIRED METARs :
  • 070020Z AUTO 21009KT 180V240 2400 -RA BKN004/// 06/05 Q0999
  • 062350Z AUTO 21008KT 180V250 2700 -RA BKN003/// 06/05 Q1000
  • 062335Z AUTO 21009KT 180V250 3700 -RA BKN003/// 06/05 Q1000
  • 062322Z AUTO 21009KT 2600 -RA OVC002/// 06/05 Q1000
  • 062250Z 22009KT 3500 -RA BR BKN003 06/05 Q1000 R19/2///95
  • 062220Z 21009KT 180V260 3400 -RA BR BKN003 06/06 Q1000 R19/2///95

TAF TAF EYPA
Valid from the 07 at 00:00 until the 08 at 00:00 UTC


062309Z 0700/0724 22013KT 5000 BR OVC004
TEMPO 0700/0708 2000 RA OVC002
TEMPO 0708/0711 23023KT 2000 RA
BECMG 0711/0712 28023KT
TEMPO 0712/0715 3000 RA



MET'MAP, your aeronautical weather chart ! - Copyright ORBIFLY December 2007 - Disclaimer

ORBIFLY MET'MAP TEAM :

Programming & Development : Alexandra Zaïnal
Concept & original design : Baudouin d'Aumeries
Assistance for programming : Marc-Olivier Méhu
Technical & hardware support : Manuel Goepfert

Contact : metmap@orbifly.com




SOURCES & CREDITS :

   NOAA